Time;durP1;ratioP1;P1;durP2;ratioP2;P2;SDS_P1;SDS_P2;PMS_P1;PMS_P2;Temp;Humidity;BMP_temperature;BMP_pressure;BME280_temperature;BME280_humidity;BME280_pressure;Samples;Min_cycle;Max_cycle;Signal;HPM_P1;HPM_P2
2023/07/20 00:02:36;;;;;;;5.25;1.38;;;;;;;;;;5055839;28;20050;-60
2023/07/20 00:05:07;;;;;;;4.18;1.30;;;;;;;;;;5063983;28;20052;-60
2023/07/20 00:07:36;;;;;;;5.13;1.40;;;;;;;;;;5065605;28;20044;-60
2023/07/20 00:10:03;;;;;;;4.72;1.40;;;;;;;;;;5060521;28;20475;-60
2023/07/20 00:12:31;;;;;;;5.10;1.20;;;;;;;;;;5057713;28;20048;-60
2023/07/20 00:14:59;;;;;;;5.15;1.60;;;;;;;;;;5057299;28;20052;-59
2023/07/20 00:17:27;;;;;;;4.25;1.20;;;;;;;;;;5051154;28;20682;-59
2023/07/20 00:20:01;;;;;;;4.70;1.80;;;;;;;;;;5062066;28;20059;-62
2023/07/20 00:22:30;;;;;;;4.45;1.65;;;;;;;;;;5056620;28;20429;-59
2023/07/20 00:24:57;;;;;;;5.43;1.80;;;;;;;;;;5053139;28;20052;-59
2023/07/20 00:27:25;;;;;;;4.45;1.60;;;;;;;;;;5068611;28;20272;-59
2023/07/20 00:29:53;;;;;;;5.82;1.85;;;;;;;;;;5062246;28;20084;-59
2023/07/20 00:32:21;;;;;;;5.50;1.50;;;;;;;;;;5061193;28;20094;-59
2023/07/20 00:34:48;;;;;;;5.50;1.48;;;;;;;;;;5056686;28;20048;-59
2023/07/20 00:37:18;;;;;;;6.03;1.53;;;;;;;;;;5055907;28;20579;-59
2023/07/20 00:39:45;;;;;;;7.20;2.20;;;;;;;;;;5059836;28;20051;-59
2023/07/20 00:42:13;;;;;;;4.90;1.80;;;;;;;;;;5042513;28;20498;-59
2023/07/20 00:44:41;;;;;;;5.40;1.80;;;;;;;;;;5071096;28;20044;-59
2023/07/20 00:47:09;;;;;;;4.72;1.70;;;;;;;;;;5056355;28;20127;-59
2023/07/20 00:49:37;;;;;;;4.30;1.60;;;;;;;;;;5069104;28;20048;-59
2023/07/20 00:52:07;;;;;;;5.20;1.55;;;;;;;;;;5066206;28;20052;-59
2023/07/20 00:54:39;;;;;;;6.55;1.83;;;;;;;;;;5061781;28;20048;-59
2023/07/20 00:57:08;;;;;;;4.45;1.42;;;;;;;;;;5052339;28;20052;-59
2023/07/20 00:59:35;;;;;;;5.05;1.65;;;;;;;;;;5068697;28;20048;-60
2023/07/20 01:02:04;;;;;;;8.30;2.00;;;;;;;;;;5033124;28;20731;-59
2023/07/20 01:04:34;;;;;;;4.60;1.58;;;;;;;;;;5057553;28;20132;-59
2023/07/20 01:07:03;;;;;;;7.75;1.95;;;;;;;;;;5049075;28;20062;-59
2023/07/20 01:09:41;;;;;;;6.85;1.80;;;;;;;;;;5053392;28;20048;-59
2023/07/20 01:12:13;;;;;;;4.55;1.70;;;;;;;;;;5023886;28;20044;-60
2023/07/20 01:14:41;;;;;;;5.73;2.30;;;;;;;;;;5046646;28;20055;-59
2023/07/20 01:17:08;;;;;;;6.25;2.00;;;;;;;;;;5063291;28;20051;-59
2023/07/20 01:19:36;;;;;;;5.55;1.85;;;;;;;;;;5052264;28;20048;-59
2023/07/20 01:22:10;;;;;;;6.03;1.95;;;;;;;;;;5042349;28;20093;-59
2023/07/20 01:25:08;;;;;;;5.32;1.92;;;;;;;;;;5064235;28;20383;-59
2023/07/20 01:27:52;;;;;;;6.33;2.17;;;;;;;;;;5061595;28;20494;-59
2023/07/20 01:30:33;;;;;;;5.70;2.20;;;;;;;;;;5058180;28;20798;-59
2023/07/20 01:33:08;;;;;;;5.05;2.20;;;;;;;;;;5070389;28;20052;-59
2023/07/20 01:35:39;;;;;;;7.53;1.90;;;;;;;;;;5066612;28;20048;-59
2023/07/20 01:38:08;;;;;;;6.85;2.08;;;;;;;;;;5055054;28;20052;-60
2023/07/20 01:40:36;;;;;;;6.23;2.27;;;;;;;;;;5059900;28;20055;-60
2023/07/20 01:43:04;;;;;;;5.70;2.38;;;;;;;;;;5062008;28;20048;-59
2023/07/20 01:45:35;;;;;;;7.22;2.00;;;;;;;;;;5054601;28;20048;-60
2023/07/20 01:48:03;;;;;;;5.65;1.55;;;;;;;;;;5073289;28;20573;-60
2023/07/20 01:50:34;;;;;;;6.13;1.95;;;;;;;;;;5056243;28;20063;-59
2023/07/20 01:53:02;;;;;;;5.33;2.10;;;;;;;;;;5067687;28;20064;-62
2023/07/20 01:55:29;;;;;;;5.18;1.73;;;;;;;;;;5058627;28;20098;-59
2023/07/20 01:57:59;;;;;;;8.27;2.10;;;;;;;;;;5067630;28;20058;-60
2023/07/20 02:00:27;;;;;;;4.93;1.88;;;;;;;;;;5058681;28;20048;-60
2023/07/20 02:02:54;;;;;;;5.78;1.65;;;;;;;;;;5069346;28;20066;-60
2023/07/20 02:05:22;;;;;;;6.43;2.03;;;;;;;;;;5064857;28;20126;-60
2023/07/20 02:07:51;;;;;;;5.53;1.80;;;;;;;;;;5054018;28;20040;-60
2023/07/20 02:10:19;;;;;;;4.93;1.40;;;;;;;;;;5048022;28;20055;-60
2023/07/20 02:12:47;;;;;;;6.35;1.60;;;;;;;;;;5066756;28;20048;-60
2023/07/20 02:15:16;;;;;;;4.75;1.70;;;;;;;;;;5062670;28;20054;-60
2023/07/20 02:17:44;;;;;;;4.60;1.80;;;;;;;;;;5070473;28;20291;-60
2023/07/20 02:20:12;;;;;;;6.05;2.13;;;;;;;;;;5058436;28;20063;-60
2023/07/20 02:22:40;;;;;;;7.07;2.30;;;;;;;;;;5063570;28;20494;-60
2023/07/20 02:25:12;;;;;;;6.57;1.90;;;;;;;;;;5066917;28;20123;-60
2023/07/20 02:27:39;;;;;;;5.70;1.90;;;;;;;;;;5061552;28;20044;-60
2023/07/20 02:30:09;;;;;;;5.33;1.80;;;;;;;;;;5041765;28;20048;-60
2023/07/20 02:32:37;;;;;;;7.00;1.80;;;;;;;;;;5056969;28;20044;-60
2023/07/20 02:35:06;;;;;;;4.45;1.50;;;;;;;;;;5037919;28;21116;-60
2023/07/20 02:37:35;;;;;;;5.25;1.67;;;;;;;;;;5055675;28;20608;-59
2023/07/20 02:40:03;;;;;;;5.18;1.52;;;;;;;;;;5056624;28;20054;-60
2023/07/20 02:42:33;;;;;;;4.80;1.93;;;;;;;;;;5054821;28;20478;-59
2023/07/20 02:45:00;;;;;;;6.43;1.90;;;;;;;;;;5058836;28;20127;-59
2023/07/20 02:47:28;;;;;;;8.98;2.08;;;;;;;;;;5052672;28;20078;-60
2023/07/20 02:49:56;;;;;;;5.47;2.00;;;;;;;;;;5067381;28;20127;-60
2023/07/20 02:52:24;;;;;;;6.75;2.03;;;;;;;;;;5062764;28;20060;-59
2023/07/20 02:54:51;;;;;;;5.50;1.97;;;;;;;;;;5068900;28;20067;-59
2023/07/20 02:57:19;;;;;;;5.10;2.03;;;;;;;;;;5054029;28;20044;-59
2023/07/20 02:59:50;;;;;;;5.65;2.22;;;;;;;;;;5062930;28;20056;-59
2023/07/20 03:02:19;;;;;;;6.20;1.83;;;;;;;;;;5068330;28;20047;-59
2023/07/20 03:04:48;;;;;;;5.05;1.60;;;;;;;;;;5043181;28;20048;-59
2023/07/20 03:07:16;;;;;;;6.30;1.90;;;;;;;;;;5061142;28;20059;-60
2023/07/20 03:09:48;;;;;;;4.93;1.75;;;;;;;;;;5069070;28;20040;-60
2023/07/20 03:12:16;;;;;;;5.32;2.10;;;;;;;;;;5059269;28;20079;-59
2023/07/20 03:14:44;;;;;;;4.68;1.40;;;;;;;;;;5054349;28;20052;-59
2023/07/20 03:17:13;;;;;;;4.45;1.45;;;;;;;;;;5064965;28;20067;-55
2023/07/20 03:19:41;;;;;;;4.73;1.70;;;;;;;;;;5064438;28;20082;-59
2023/07/20 03:22:09;;;;;;;4.45;1.58;;;;;;;;;;5072082;28;20059;-60
2023/07/20 03:24:36;;;;;;;5.10;1.88;;;;;;;;;;5042514;28;20056;-60
2023/07/20 03:27:04;;;;;;;6.50;1.88;;;;;;;;;;5067730;28;20044;-60
2023/07/20 03:29:33;;;;;;;5.22;2.13;;;;;;;;;;5053862;28;20292;-55
2023/07/20 03:32:00;;;;;;;5.63;2.00;;;;;;;;;;5068208;28;20050;-60
2023/07/20 03:34:29;;;;;;;6.75;2.63;;;;;;;;;;5066219;28;20060;-60
2023/07/20 03:36:57;;;;;;;11.77;2.80;;;;;;;;;;5069469;28;20558;-60
2023/07/20 03:39:25;;;;;;;5.80;2.08;;;;;;;;;;5065245;28;20063;-60
2023/07/20 03:41:52;;;;;;;7.30;1.95;;;;;;;;;;5060331;28;20052;-59
2023/07/20 03:44:20;;;;;;;5.00;2.03;;;;;;;;;;5072578;28;20040;-62
2023/07/20 03:46:47;;;;;;;6.10;2.00;;;;;;;;;;5063309;28;20047;-61
2023/07/20 03:49:15;;;;;;;6.28;2.00;;;;;;;;;;5078934;28;20060;-61
2023/07/20 03:51:51;;;;;;;5.20;2.00;;;;;;;;;;5073217;28;20478;-61
2023/07/20 03:54:19;;;;;;;7.40;2.10;;;;;;;;;;5061960;28;20070;-61
2023/07/20 03:56:47;;;;;;;5.90;1.97;;;;;;;;;;5048721;28;20044;-61
2023/07/20 03:59:15;;;;;;;6.35;2.20;;;;;;;;;;5062656;28;20044;-61
2023/07/20 04:01:43;;;;;;;6.00;2.15;;;;;;;;;;5060764;28;20795;-61
2023/07/20 04:04:11;;;;;;;5.32;2.17;;;;;;;;;;5062176;28;20052;-61
2023/07/20 04:06:39;;;;;;;5.75;1.95;;;;;;;;;;5069072;28;20074;-61
2023/07/20 04:09:08;;;;;;;6.70;2.17;;;;;;;;;;5068495;28;20044;-61
2023/07/20 04:11:36;;;;;;;6.43;2.13;;;;;;;;;;5045909;28;20065;-61
2023/07/20 04:14:03;;;;;;;6.47;2.22;;;;;;;;;;5066491;28;20486;-61
2023/07/20 04:16:33;;;;;;;6.05;1.83;;;;;;;;;;5059766;28;20055;-61
2023/07/20 04:19:01;;;;;;;6.38;1.70;;;;;;;;;;5058623;28;20059;-61
2023/07/20 04:21:29;;;;;;;6.30;2.07;;;;;;;;;;5066430;28;20051;-62
2023/07/20 04:23:56;;;;;;;6.38;2.25;;;;;;;;;;5067234;28;20058;-62
2023/07/20 04:26:25;;;;;;;6.53;2.03;;;;;;;;;;5068700;28;20040;-61
2023/07/20 04:28:53;;;;;;;7.53;2.33;;;;;;;;;;5067541;28;20059;-61
2023/07/20 04:31:21;;;;;;;7.53;2.53;;;;;;;;;;5053816;28;20055;-59
2023/07/20 04:33:48;;;;;;;9.30;2.97;;;;;;;;;;5061958;28;20489;-61
2023/07/20 04:36:19;;;;;;;5.93;2.28;;;;;;;;;;5051967;28;20737;-61
2023/07/20 04:38:47;;;;;;;7.05;2.50;;;;;;;;;;5064844;28;20076;-61
2023/07/20 04:41:15;;;;;;;6.45;2.40;;;;;;;;;;5072904;28;20059;-61
2023/07/20 04:43:47;;;;;;;7.20;2.33;;;;;;;;;;5067328;28;20052;-60
2023/07/20 04:46:17;;;;;;;6.70;2.40;;;;;;;;;;5052480;28;20040;-61
2023/07/20 04:48:45;;;;;;;5.82;2.35;;;;;;;;;;5065624;28;20052;-60
2023/07/20 04:51:13;;;;;;;7.47;2.63;;;;;;;;;;5049234;28;20059;-60
2023/07/20 04:53:40;;;;;;;8.25;2.13;;;;;;;;;;5066859;28;20040;-60
2023/07/20 04:56:09;;;;;;;8.73;2.50;;;;;;;;;;5051916;28;20870;-61
2023/07/20 04:58:36;;;;;;;6.40;2.47;;;;;;;;;;5070061;28;20071;-60
2023/07/20 05:01:05;;;;;;;9.18;2.88;;;;;;;;;;5056375;28;20043;-60
2023/07/20 05:03:34;;;;;;;6.97;2.67;;;;;;;;;;5065163;28;20044;-59
2023/07/20 05:06:02;;;;;;;6.78;2.28;;;;;;;;;;5062016;28;20542;-60
2023/07/20 05:08:29;;;;;;;8.68;2.60;;;;;;;;;;5069349;28;20052;-60
2023/07/20 05:10:57;;;;;;;6.50;2.50;;;;;;;;;;5047774;28;20040;-60
2023/07/20 05:13:25;;;;;;;5.80;2.50;;;;;;;;;;5053814;28;20446;-59
2023/07/20 05:15:53;;;;;;;6.97;2.30;;;;;;;;;;5063260;28;20513;-58
2023/07/20 05:18:22;;;;;;;8.15;2.40;;;;;;;;;;5047042;28;20047;-59
2023/07/20 05:20:50;;;;;;;6.57;2.90;;;;;;;;;;5045105;28;20135;-59
2023/07/20 05:23:18;;;;;;;5.83;2.53;;;;;;;;;;5050511;28;20135;-59
2023/07/20 05:25:46;;;;;;;6.53;2.67;;;;;;;;;;5043029;28;20043;-59
2023/07/20 05:28:14;;;;;;;7.47;2.80;;;;;;;;;;5047468;28;20044;-59
2023/07/20 05:30:42;;;;;;;6.70;2.10;;;;;;;;;;5062861;28;20048;-62
2023/07/20 05:33:14;;;;;;;6.55;2.15;;;;;;;;;;5058275;28;20131;-59
2023/07/20 05:35:48;;;;;;;6.40;2.80;;;;;;;;;;5068097;28;20044;-60
2023/07/20 05:38:16;;;;;;;7.70;2.72;;;;;;;;;;5051195;28;20076;-60
2023/07/20 05:40:45;;;;;;;7.35;2.95;;;;;;;;;;5068041;28;20581;-60
2023/07/20 05:43:12;;;;;;;7.53;3.03;;;;;;;;;;5065028;28;20601;-58
2023/07/20 05:45:42;;;;;;;8.00;2.88;;;;;;;;;;5057489;28;20214;-59
2023/07/20 05:48:11;;;;;;;6.37;2.77;;;;;;;;;;5053844;28;21576;-59
2023/07/20 05:50:39;;;;;;;7.22;3.45;;;;;;;;;;5067937;28;20112;-61
2023/07/20 05:53:08;;;;;;;6.38;2.90;;;;;;;;;;5050644;28;20039;-61
2023/07/20 05:55:35;;;;;;;6.95;3.15;;;;;;;;;;5065448;28;20421;-61
2023/07/20 05:58:04;;;;;;;6.55;2.40;;;;;;;;;;5054073;28;20050;-61
2023/07/20 06:00:31;;;;;;;7.93;2.53;;;;;;;;;;5068442;28;20089;-61
2023/07/20 06:03:03;;;;;;;6.35;2.47;;;;;;;;;;5063137;28;20512;-61
2023/07/20 06:05:30;;;;;;;7.53;3.30;;;;;;;;;;5058904;28;20055;-61
2023/07/20 06:08:00;;;;;;;6.10;2.70;;;;;;;;;;5045372;28;20509;-61
2023/07/20 06:10:29;;;;;;;6.10;2.47;;;;;;;;;;5059543;28;20301;-61
2023/07/20 06:12:57;;;;;;;6.97;2.70;;;;;;;;;;5057823;28;20055;-61
2023/07/20 06:15:26;;;;;;;6.65;2.28;;;;;;;;;;5052769;28;20131;-60
2023/07/20 06:17:57;;;;;;;7.85;2.60;;;;;;;;;;5057878;28;20584;-59
2023/07/20 06:20:26;;;;;;;7.22;2.92;;;;;;;;;;5052069;28;20399;-59
2023/07/20 06:22:54;;;;;;;6.20;2.70;;;;;;;;;;5054947;28;20059;-60
2023/07/20 06:25:22;;;;;;;6.30;2.53;;;;;;;;;;5062774;28;20080;-60
2023/07/20 06:27:52;;;;;;;8.45;3.10;;;;;;;;;;5055117;28;20478;-61
2023/07/20 06:30:20;;;;;;;8.18;2.70;;;;;;;;;;5063230;28;20455;-60
2023/07/20 06:32:47;;;;;;;6.10;2.38;;;;;;;;;;5059320;28;20138;-60
2023/07/20 06:35:15;;;;;;;8.07;2.88;;;;;;;;;;5041878;28;21082;-60
2023/07/20 06:37:43;;;;;;;9.43;3.00;;;;;;;;;;5060665;28;20075;-60
2023/07/20 06:40:12;;;;;;;7.82;2.75;;;;;;;;;;5053846;28;20068;-60
2023/07/20 06:42:42;;;;;;;6.32;2.38;;;;;;;;;;5062646;28;20055;-60
2023/07/20 06:45:14;;;;;;;9.80;3.00;;;;;;;;;;5042475;28;20052;-59
2023/07/20 06:47:43;;;;;;;7.82;2.47;;;;;;;;;;5066363;28;20052;-61
2023/07/20 06:50:15;;;;;;;7.77;3.00;;;;;;;;;;5061007;28;20084;-61
2023/07/20 06:52:46;;;;;;;8.05;2.83;;;;;;;;;;5029362;28;20048;-60
2023/07/20 06:55:14;;;;;;;6.47;2.60;;;;;;;;;;5027316;28;20045;-59
2023/07/20 06:57:42;;;;;;;8.25;2.92;;;;;;;;;;5027967;28;20091;-62
2023/07/20 07:00:17;;;;;;;8.20;2.92;;;;;;;;;;5048303;28;20060;-60
2023/07/20 07:02:44;;;;;;;8.00;2.73;;;;;;;;;;5035014;28;20061;-60
2023/07/20 07:05:16;;;;;;;7.00;2.50;;;;;;;;;;5052658;28;20067;-60
2023/07/20 07:07:49;;;;;;;6.43;2.72;;;;;;;;;;5027237;28;20463;-60
2023/07/20 07:10:18;;;;;;;6.75;2.15;;;;;;;;;;5042986;28;20044;-60
2023/07/20 07:12:45;;;;;;;5.70;2.40;;;;;;;;;;5026877;28;20056;-60
2023/07/20 07:15:13;;;;;;;5.67;2.07;;;;;;;;;;5035413;28;20370;-60
2023/07/20 07:17:43;;;;;;;5.95;2.53;;;;;;;;;;5047404;28;20048;-60
2023/07/20 07:20:11;;;;;;;6.43;2.60;;;;;;;;;;5018293;28;20041;-62
2023/07/20 07:22:47;;;;;;;5.97;2.20;;;;;;;;;;5040725;28;20055;-62
2023/07/20 07:25:20;;;;;;;5.00;1.92;;;;;;;;;;5027976;28;20415;-61
2023/07/20 07:27:51;;;;;;;7.50;2.60;;;;;;;;;;5030088;28;20178;-61
2023/07/20 07:30:19;;;;;;;6.43;2.55;;;;;;;;;;5044266;28;20068;-60
2023/07/20 07:32:48;;;;;;;6.00;2.63;;;;;;;;;;5036292;28;20055;-60
2023/07/20 07:35:15;;;;;;;7.97;2.40;;;;;;;;;;5041474;28;20130;-60
2023/07/20 07:37:43;;;;;;;8.35;2.70;;;;;;;;;;5032718;28;20055;-61
2023/07/20 07:40:33;;;;;;;6.07;2.30;;;;;;;;;;5033838;28;20056;-58
2023/07/20 07:43:00;;;;;;;12.82;2.70;;;;;;;;;;5034330;28;20048;-61
2023/07/20 07:45:28;;;;;;;6.50;2.20;;;;;;;;;;5042494;28;20068;-64
2023/07/20 07:47:57;;;;;;;6.55;2.63;;;;;;;;;;5014528;28;20386;-61
2023/07/20 07:50:27;;;;;;;6.32;2.28;;;;;;;;;;5048481;28;20070;-61
2023/07/20 07:52:54;;;;;;;6.20;2.40;;;;;;;;;;5036599;28;20055;-61
2023/07/20 07:55:22;;;;;;;5.80;2.15;;;;;;;;;;5069319;28;20114;-61
2023/07/20 07:57:50;;;;;;;6.55;2.28;;;;;;;;;;5049526;28;20052;-61
2023/07/20 08:00:19;;;;;;;6.00;1.83;;;;;;;;;;4715288;28;10000765;-60
2023/07/20 08:02:48;;;;;;;6.55;1.90;;;;;;;;;;5047607;28;20254;-61
2023/07/20 08:05:17;;;;;;;4.78;1.65;;;;;;;;;;5054117;28;20391;-60
2023/07/20 08:07:47;;;;;;;4.35;1.48;;;;;;;;;;5057669;28;20423;-61
2023/07/20 08:10:14;;;;;;;4.17;1.13;;;;;;;;;;5060759;28;20055;-60
2023/07/20 08:12:43;;;;;;;5.40;1.95;;;;;;;;;;5061479;28;20063;-60
2023/07/20 08:15:12;;;;;;;5.35;1.65;;;;;;;;;;5056219;28;20063;-60
2023/07/20 08:17:39;;;;;;;4.70;1.55;;;;;;;;;;4701352;28;10000771;-60
2023/07/20 08:20:09;;;;;;;5.28;1.13;;;;;;;;;;5033619;28;20052;-61
2023/07/20 08:22:38;;;;;;;4.10;1.07;;;;;;;;;;5051164;28;20067;-61
2023/07/20 08:25:06;;;;;;;4.80;1.17;;;;;;;;;;5045235;28;20514;-61
2023/07/20 08:27:34;;;;;;;4.10;1.38;;;;;;;;;;5050437;28;20060;-61
2023/07/20 08:30:09;;;;;;;4.97;1.58;;;;;;;;;;5049125;28;20052;-61
2023/07/20 08:32:36;;;;;;;4.53;1.60;;;;;;;;;;5035001;28;20921;-60
2023/07/20 08:35:05;;;;;;;4.70;1.40;;;;;;;;;;5035804;28;20150;-61
2023/07/20 08:37:34;;;;;;;4.50;1.80;;;;;;;;;;5043289;28;20598;-61
2023/07/20 08:40:08;;;;;;;3.90;1.15;;;;;;;;;;5032218;28;20617;-61
2023/07/20 08:42:37;;;;;;;4.20;1.42;;;;;;;;;;5054902;28;20059;-60
2023/07/20 08:45:07;;;;;;;7.32;1.58;;;;;;;;;;5045125;28;20830;-62
2023/07/20 08:47:35;;;;;;;4.73;1.47;;;;;;;;;;5039373;28;20516;-62
2023/07/20 08:50:05;;;;;;;4.90;1.20;;;;;;;;;;5017398;28;20126;-63
2023/07/20 08:52:35;;;;;;;3.70;1.00;;;;;;;;;;5044996;28;20054;-62
2023/07/20 08:55:05;;;;;;;4.35;1.40;;;;;;;;;;5037058;28;20071;-62
2023/07/20 08:57:34;;;;;;;4.78;1.48;;;;;;;;;;5039811;28;20062;-62
2023/07/20 09:00:06;;;;;;;4.70;1.37;;;;;;;;;;5036668;28;20081;-62
2023/07/20 09:02:36;;;;;;;6.45;1.30;;;;;;;;;;5044954;28;20506;-62
2023/07/20 09:05:04;;;;;;;4.03;1.20;;;;;;;;;;5049435;28;20048;-60
2023/07/20 09:07:33;;;;;;;5.03;1.60;;;;;;;;;;5021411;28;20089;-61
2023/07/20 09:10:05;;;;;;;4.68;1.30;;;;;;;;;;5042364;28;20055;-61
2023/07/20 09:12:36;;;;;;;5.17;1.40;;;;;;;;;;5050444;28;20044;-61
2023/07/20 09:15:04;;;;;;;5.00;1.50;;;;;;;;;;5041662;28;20044;-61
2023/07/20 09:17:33;;;;;;;4.80;1.60;;;;;;;;;;5040943;28;20054;-60
2023/07/20 09:20:05;;;;;;;5.03;1.50;;;;;;;;;;5036024;28;20055;-60
2023/07/20 09:22:33;;;;;;;5.32;1.50;;;;;;;;;;5052551;28;20426;-59
2023/07/20 09:25:00;;;;;;;4.77;1.43;;;;;;;;;;5044468;28;20051;-60
2023/07/20 09:27:37;;;;;;;4.07;1.40;;;;;;;;;;5054168;28;20533;-60
2023/07/20 09:30:07;;;;;;;7.60;1.80;;;;;;;;;;5060826;28;20796;-61
2023/07/20 09:32:39;;;;;;;5.40;1.70;;;;;;;;;;5059710;28;20047;-61
2023/07/20 09:35:21;;;;;;;6.00;1.90;;;;;;;;;;5049616;28;20113;-60
2023/07/20 09:37:56;;;;;;;4.97;1.70;;;;;;;;;;5056699;28;20068;-61
2023/07/20 09:40:27;;;;;;;5.40;1.70;;;;;;;;;;5049470;28;20044;-61
2023/07/20 09:43:17;;;;;;;4.57;1.67;;;;;;;;;;5041684;28;20113;-61
2023/07/20 09:45:48;;;;;;;5.30;1.70;;;;;;;;;;5059545;28;20052;-62
2023/07/20 09:48:22;;;;;;;4.00;1.27;;;;;;;;;;5052733;28;20067;-61
2023/07/20 09:50:52;;;;;;;5.60;1.30;;;;;;;;;;5060196;28;20650;-57
2023/07/20 09:53:21;;;;;;;4.40;1.50;;;;;;;;;;5052971;28;20044;-62
2023/07/20 09:55:51;;;;;;;5.35;1.65;;;;;;;;;;5063651;28;20063;-62
2023/07/20 09:58:22;;;;;;;6.03;1.70;;;;;;;;;;5055749;28;20093;-60
2023/07/20 10:00:52;;;;;;;5.38;1.55;;;;;;;;;;5057218;28;20052;-59
2023/07/20 10:03:22;;;;;;;4.37;1.50;;;;;;;;;;5066439;28;20056;-60
2023/07/20 10:05:53;;;;;;;4.72;1.80;;;;;;;;;;5062022;28;20337;-60
2023/07/20 10:08:24;;;;;;;6.07;1.80;;;;;;;;;;5059767;28;20675;-60
2023/07/20 10:10:56;;;;;;;4.13;1.55;;;;;;;;;;5061775;28;20039;-60
2023/07/20 10:13:26;;;;;;;6.05;1.67;;;;;;;;;;5050939;28;20810;-59
2023/07/20 10:15:55;;;;;;;4.00;1.20;;;;;;;;;;5064678;28;20147;-60
2023/07/20 10:18:26;;;;;;;3.63;1.03;;;;;;;;;;4699571;28;10000476;-63
2023/07/20 10:20:55;;;;;;;4.00;1.10;;;;;;;;;;5063126;28;20052;-59
2023/07/20 10:23:27;;;;;;;4.18;1.38;;;;;;;;;;5032923;28;20040;-59
2023/07/20 10:25:55;;;;;;;4.35;1.42;;;;;;;;;;5019747;28;20472;-60
2023/07/20 10:28:27;;;;;;;4.20;1.58;;;;;;;;;;5040446;28;20052;-60
2023/07/20 10:30:55;;;;;;;4.00;1.40;;;;;;;;;;5047023;28;20048;-60
2023/07/20 10:33:25;;;;;;;4.78;1.42;;;;;;;;;;5037870;28;20044;-65
2023/07/20 10:35:53;;;;;;;5.10;1.48;;;;;;;;;;5042283;28;20055;-57
2023/07/20 10:38:21;;;;;;;4.22;1.35;;;;;;;;;;5026207;28;20079;-60
2023/07/20 10:40:55;;;;;;;4.82;1.60;;;;;;;;;;5042564;28;20056;-60
2023/07/20 10:43:25;;;;;;;4.90;1.77;;;;;;;;;;5045537;28;20114;-60
2023/07/20 10:45:54;;;;;;;4.68;1.30;;;;;;;;;;5049373;28;20407;-60
2023/07/20 10:48:22;;;;;;;4.10;1.35;;;;;;;;;;5038694;28;20044;-60
2023/07/20 10:51:04;;;;;;;4.00;1.40;;;;;;;;;;5032787;28;20056;-61
2023/07/20 10:53:33;;;;;;;5.72;1.30;;;;;;;;;;5027534;28;20079;-60
2023/07/20 10:56:06;;;;;;;4.43;1.53;;;;;;;;;;5024383;28;20075;-60
2023/07/20 10:58:36;;;;;;;4.80;1.05;;;;;;;;;;5026560;28;20610;-62
2023/07/20 11:01:06;;;;;;;4.63;1.25;;;;;;;;;;5042830;28;20476;-62
2023/07/20 11:03:36;;;;;;;5.50;1.50;;;;;;;;;;5037415;28;20040;-62
2023/07/20 11:06:24;;;;;;;5.18;1.50;;;;;;;;;;5032032;28;20072;-62
2023/07/20 11:08:56;;;;;;;4.13;1.40;;;;;;;;;;5034174;28;20052;-62
2023/07/20 11:11:29;;;;;;;4.70;1.33;;;;;;;;;;5050519;28;20606;-62
2023/07/20 11:14:01;;;;;;;4.53;1.25;;;;;;;;;;5042756;28;20063;-62
2023/07/20 11:16:34;;;;;;;4.88;1.60;;;;;;;;;;5030845;28;20487;-60
2023/07/20 11:19:02;;;;;;;3.83;1.35;;;;;;;;;;5034026;28;20055;-60
2023/07/20 11:21:31;;;;;;;5.80;1.87;;;;;;;;;;5035045;28;20836;-60
2023/07/20 11:23:58;;;;;;;4.10;1.40;;;;;;;;;;5031511;28;20048;-60
2023/07/20 11:26:26;;;;;;;3.78;1.20;;;;;;;;;;5024483;28;21096;-60
2023/07/20 11:28:54;;;;;;;4.50;1.52;;;;;;;;;;5032439;28;22070;-59
2023/07/20 11:31:23;;;;;;;5.18;1.33;;;;;;;;;;5027428;28;20048;-59
2023/07/20 11:33:51;;;;;;;4.00;1.47;;;;;;;;;;5049182;28;20159;-62
2023/07/20 11:36:19;;;;;;;3.95;1.58;;;;;;;;;;5012170;28;20036;-60
2023/07/20 11:38:49;;;;;;;4.43;1.17;;;;;;;;;;5031838;28;20044;-62
2023/07/20 11:41:21;;;;;;;5.25;1.58;;;;;;;;;;5051918;28;20044;-60
2023/07/20 11:43:55;;;;;;;4.93;1.58;;;;;;;;;;5053037;28;20142;-61
2023/07/20 11:46:24;;;;;;;4.17;1.37;;;;;;;;;;5039519;28;20079;-61
2023/07/20 11:48:57;;;;;;;6.07;2.00;;;;;;;;;;5029355;28;20048;-58
2023/07/20 11:51:25;;;;;;;3.85;1.55;;;;;;;;;;5027947;28;20044;-61
2023/07/20 11:53:53;;;;;;;5.20;1.30;;;;;;;;;;5030974;28;20444;-61
2023/07/20 11:56:21;;;;;;;6.57;1.52;;;;;;;;;;5038774;28;20052;-61
2023/07/20 11:58:49;;;;;;;3.97;0.80;;;;;;;;;;5033440;28;20052;-61
2023/07/20 12:01:18;;;;;;;4.18;1.33;;;;;;;;;;5040364;28;20047;-61
2023/07/20 12:03:48;;;;;;;4.38;1.55;;;;;;;;;;5048099;28;20052;-61
2023/07/20 12:06:16;;;;;;;4.20;1.33;;;;;;;;;;5046685;28;20093;-61
2023/07/20 12:08:49;;;;;;;4.95;1.90;;;;;;;;;;5040967;28;20533;-61
2023/07/20 12:11:31;;;;;;;4.17;1.50;;;;;;;;;;5058985;28;20138;-61
2023/07/20 12:13:59;;;;;;;4.85;1.50;;;;;;;;;;5023281;28;20048;-62
2023/07/20 12:16:42;;;;;;;4.13;1.20;;;;;;;;;;5044079;28;20122;-62
2023/07/20 12:19:12;;;;;;;5.88;1.60;;;;;;;;;;5017251;28;20056;-62
2023/07/20 12:21:41;;;;;;;5.38;1.70;;;;;;;;;;5025514;28;20039;-62
2023/07/20 12:24:09;;;;;;;3.83;1.20;;;;;;;;;;5046022;28;20146;-62
2023/07/20 12:26:38;;;;;;;4.47;1.48;;;;;;;;;;5043430;28;20044;-61
2023/07/20 12:29:05;;;;;;;3.88;1.58;;;;;;;;;;5044241;28;20591;-61
2023/07/20 12:31:37;;;;;;;6.82;1.50;;;;;;;;;;5043018;28;20648;-61
2023/07/20 12:34:13;;;;;;;3.33;1.00;;;;;;;;;;5048992;28;20048;-61
2023/07/20 12:36:42;;;;;;;4.83;0.97;;;;;;;;;;5049980;28;21023;-61
2023/07/20 12:39:10;;;;;;;4.88;1.25;;;;;;;;;;5038544;28;20051;-61
2023/07/20 12:41:37;;;;;;;4.15;1.50;;;;;;;;;;5038865;28;20052;-62
2023/07/20 12:44:05;;;;;;;4.03;1.23;;;;;;;;;;5045996;28;20916;-62
2023/07/20 12:46:37;;;;;;;4.22;1.17;;;;;;;;;;5036735;28;20467;-60
2023/07/20 12:49:04;;;;;;;4.13;1.30;;;;;;;;;;5026462;28;20048;-62
2023/07/20 12:51:33;;;;;;;4.20;1.55;;;;;;;;;;5043752;28;20059;-61
2023/07/20 12:54:02;;;;;;;5.70;1.05;;;;;;;;;;4681623;28;9999972;-61
2023/07/20 12:56:29;;;;;;;5.72;1.17;;;;;;;;;;5037209;28;20048;-60
2023/07/20 12:59:02;;;;;;;3.33;1.03;;;;;;;;;;5032660;28;20056;-61
2023/07/20 13:01:31;;;;;;;4.63;1.15;;;;;;;;;;5043082;28;20048;-61
2023/07/20 13:04:02;;;;;;;4.78;1.20;;;;;;;;;;4993766;28;20414;-60
2023/07/20 13:06:34;;;;;;;4.75;1.45;;;;;;;;;;5038866;28;20051;-60
2023/07/20 13:09:05;;;;;;;5.40;1.55;;;;;;;;;;5040031;28;20553;-61
2023/07/20 13:11:33;;;;;;;3.70;1.20;;;;;;;;;;4690703;28;10000474;-62
2023/07/20 13:14:00;;;;;;;4.55;1.63;;;;;;;;;;5041488;28;20597;-62
2023/07/20 13:16:28;;;;;;;4.97;1.50;;;;;;;;;;5048694;28;20542;-61
2023/07/20 13:18:58;;;;;;;4.07;1.30;;;;;;;;;;5032433;28;21456;-62
2023/07/20 13:21:26;;;;;;;3.95;1.35;;;;;;;;;;5056681;28;20052;-61
2023/07/20 13:23:54;;;;;;;4.23;1.50;;;;;;;;;;5028349;28;20056;-62
2023/07/20 13:26:23;;;;;;;4.20;1.40;;;;;;;;;;5044544;28;20461;-62
2023/07/20 13:28:51;;;;;;;4.35;1.15;;;;;;;;;;5014539;28;20040;-61
2023/07/20 13:31:21;;;;;;;4.55;1.55;;;;;;;;;;5044870;28;20055;-60
2023/07/20 13:33:56;;;;;;;4.50;1.60;;;;;;;;;;5038745;28;20536;-60
2023/07/20 13:36:27;;;;;;;4.43;1.80;;;;;;;;;;5047163;28;20076;-60
2023/07/20 13:38:58;;;;;;;4.30;1.42;;;;;;;;;;5035451;28;20056;-61
2023/07/20 13:41:28;;;;;;;7.28;1.38;;;;;;;;;;5038298;28;20058;-61
2023/07/20 13:43:56;;;;;;;6.55;1.73;;;;;;;;;;5030482;28;20044;-62
2023/07/20 13:46:42;;;;;;;4.00;1.10;;;;;;;;;;5044601;28;20048;-60
2023/07/20 13:49:11;;;;;;;5.03;1.50;;;;;;;;;;5024687;28;20058;-61
2023/07/20 13:51:50;;;;;;;4.93;1.40;;;;;;;;;;5053958;28;20908;-60
2023/07/20 13:54:37;;;;;;;4.30;1.33;;;;;;;;;;5041613;28;20557;-60
2023/07/20 13:57:15;;;;;;;8.27;2.20;;;;;;;;;;5045200;28;20051;-59
2023/07/20 13:59:43;;;;;;;4.30;1.58;;;;;;;;;;5027125;28;20063;-60
2023/07/20 14:02:12;;;;;;;5.20;1.40;;;;;;;;;;5050522;28;20052;-60
2023/07/20 14:04:43;;;;;;;6.65;1.83;;;;;;;;;;5046227;28;20592;-61
2023/07/20 14:07:13;;;;;;;5.68;1.90;;;;;;;;;;5037746;28;20117;-60
2023/07/20 14:09:43;;;;;;;5.30;2.10;;;;;;;;;;5042104;28;20414;-60
2023/07/20 14:12:15;;;;;;;4.43;1.83;;;;;;;;;;5046579;28;20569;-60
2023/07/20 14:14:46;;;;;;;5.43;1.60;;;;;;;;;;5048902;28;20052;-61
2023/07/20 14:17:14;;;;;;;4.55;1.75;;;;;;;;;;5041087;28;20171;-60
2023/07/20 14:19:42;;;;;;;5.25;2.22;;;;;;;;;;5039003;28;20063;-60
2023/07/20 14:22:10;;;;;;;4.78;2.20;;;;;;;;;;5038275;28;20294;-60
2023/07/20 14:24:39;;;;;;;6.88;2.10;;;;;;;;;;5035450;28;20043;-61
2023/07/20 14:27:07;;;;;;;5.60;2.00;;;;;;;;;;5025022;28;20049;-61
2023/07/20 14:29:36;;;;;;;4.80;1.77;;;;;;;;;;5064138;28;20043;-60
2023/07/20 14:32:06;;;;;;;5.97;1.70;;;;;;;;;;5059406;28;20079;-61
2023/07/20 14:34:34;;;;;;;4.75;2.00;;;;;;;;;;5069780;28;20398;-61
2023/07/20 14:37:06;;;;;;;6.05;1.70;;;;;;;;;;5060258;28;20040;-64
2023/07/20 14:39:34;;;;;;;7.10;1.70;;;;;;;;;;5047160;28;20048;-60
2023/07/20 14:42:02;;;;;;;5.32;2.00;;;;;;;;;;5056008;28;20054;-60
2023/07/20 14:44:31;;;;;;;4.57;1.52;;;;;;;;;;5065642;28;20131;-60
2023/07/20 14:47:02;;;;;;;5.07;1.75;;;;;;;;;;5064092;28;20048;-60
2023/07/20 14:49:42;;;;;;;3.92;1.30;;;;;;;;;;5052250;28;20066;-61
2023/07/20 14:52:10;;;;;;;4.40;1.57;;;;;;;;;;5065335;28;20056;-61
2023/07/20 14:54:40;;;;;;;5.47;1.30;;;;;;;;;;5055761;28;20089;-61
2023/07/20 14:57:13;;;;;;;5.32;1.95;;;;;;;;;;5030910;28;20048;-61
2023/07/20 14:59:42;;;;;;;5.32;1.80;;;;;;;;;;5051803;28;20127;-61